Time;durP1;ratioP1;P1;durP2;ratioP2;P2;SDS_P1;SDS_P2;PMS_P1;PMS_P2;Temp;Humidity;BMP_temperature;BMP_pressure;BME280_temperature;BME280_humidity;BME280_pressure;Samples;Min_cycle;Max_cycle;Signal;HPM_P1;HPM_P2
2022/12/21 00:01:30;;;;;;;;;;;;;;;7.31;69.52;102729.97;5052661;28;19913;-81
2022/12/21 00:03:59;;;;;;;;;;;;;;;7.33;69.67;102735.34;5052682;28;19921;-82
2022/12/21 00:06:29;;;;;;;;;;;;;;;7.33;69.78;102733.66;5052592;28;19913;-81
2022/12/21 00:08:55;;;;;;;;;;;;;;;7.28;69.66;102727.09;5051467;28;19935;-82
2022/12/21 00:11:21;;;;;;;;;;;;;;;7.28;69.50;102727.09;5052227;28;19913;-82
2022/12/21 00:13:47;;;;;;;;;;;;;;;7.33;69.31;102719.75;5040484;28;19920;-82
2022/12/21 00:16:13;;;;;;;;;;;;;;;7.29;69.53;102726.31;5051271;28;19943;-82
2022/12/21 00:18:39;;;;;;;;;;;;;;;7.27;69.38;102717.44;5052554;28;20000;-82
2022/12/21 00:21:09;;;;;;;;;;;;;;;7.27;69.52;102714.84;5052204;28;20050;-82
2022/12/21 00:23:35;;;;;;;;;;;;;;;7.29;69.37;102712.41;5051065;28;20381;-82
2022/12/21 00:26:01;;;;;;;;;;;;;;;7.27;69.79;102706.13;5052244;28;19928;-82
2022/12/21 00:28:26;;;;;;;;;;;;;;;7.30;69.77;102699.56;5052355;28;20392;-82
2022/12/21 00:30:52;;;;;;;;;;;;;;;7.26;69.83;102701.69;5051815;28;20492;-83
2022/12/21 00:33:17;;;;;;;;;;;;;;;7.25;69.61;102699.88;5052393;28;19913;-83
2022/12/21 00:35:49;;;;;;;;;;;;;;;7.23;69.51;102698.81;5052094;28;19928;-83
2022/12/21 00:38:14;;;;;;;;;;;;;;;7.21;69.76;102706.44;5051847;28;20088;-83
2022/12/21 00:40:40;;;;;;;;;;;;;;;7.21;69.76;102701.25;5054123;28;20479;-80
2022/12/21 00:43:05;;;;;;;;;;;;;;;7.21;69.59;102701.25;5072415;28;19912;-83
2022/12/21 00:45:31;;;;;;;;;;;;;;;7.19;69.87;102699.25;5071549;28;19916;-83
2022/12/21 00:47:56;;;;;;;;;;;;;;;7.23;69.61;102699.72;5071421;28;20365;-83
2022/12/21 00:50:21;;;;;;;;;;;;;;;7.27;69.55;102707.03;5053556;28;20397;-84
2022/12/21 00:52:47;;;;;;;;;;;;;;;7.25;69.50;102705.97;5071822;28;19918;-83
2022/12/21 00:55:12;;;;;;;;;;;;;;;7.24;69.49;102709.34;5071901;28;20381;-83
2022/12/21 00:57:38;;;;;;;;;;;;;;;7.25;69.45;102700.78;5071613;28;20585;-83
2022/12/21 01:00:03;;;;;;;;;;;;;;;7.21;69.36;102695.13;5071966;28;20027;-82
2022/12/21 01:02:29;;;;;;;;;;;;;;;7.23;69.33;102697.13;5053837;28;20313;-83
2022/12/21 01:04:54;;;;;;;;;;;;;;;7.19;69.44;102697.56;5053524;28;19916;-83
2022/12/21 01:07:20;;;;;;;;;;;;;;;7.22;69.51;102703.09;5071438;28;19916;-83
2022/12/21 01:09:45;;;;;;;;;;;;;;;7.21;69.66;102695.13;5071144;28;19916;-83
2022/12/21 01:12:10;;;;;;;;;;;;;;;7.21;69.42;102693.44;5033202;28;20394;-83
2022/12/21 01:14:36;;;;;;;;;;;;;;;7.19;69.50;102684.59;5068067;28;19924;-83
2022/12/21 01:17:01;;;;;;;;;;;;;;;7.21;69.59;102685.66;5071457;28;20377;-82
2022/12/21 01:19:27;;;;;;;;;;;;;;;7.18;69.56;102676.66;5053839;28;20007;-83
2022/12/21 01:21:52;;;;;;;;;;;;;;;7.15;69.51;102679.84;5071350;28;19916;-83
2022/12/21 01:24:18;;;;;;;;;;;;;;;7.14;69.55;102676.34;5071290;28;20385;-83
2022/12/21 01:26:43;;;;;;;;;;;;;;;7.22;69.78;102671.91;5071630;28;20397;-83
2022/12/21 01:29:11;;;;;;;;;;;;;;;7.27;69.28;102661.97;5071579;28;20435;-83
2022/12/21 01:31:36;;;;;;;;;;;;;;;7.24;69.36;102662.59;5053679;28;19955;-83
2022/12/21 01:34:02;;;;;;;;;;;;;;;7.22;69.48;102663.22;5053323;28;19944;-83
2022/12/21 01:36:27;;;;;;;;;;;;;;;7.19;69.67;102662.88;5053047;28;20393;-81
2022/12/21 01:38:53;;;;;;;;;;;;;;;7.17;69.49;102659.22;5064861;28;20386;-81
2022/12/21 01:41:23;;;;;;;;;;;;;;;7.23;69.27;102652.03;5050338;28;19920;-82
2022/12/21 01:43:49;;;;;;;;;;;;;;;7.15;69.58;102659.06;5049895;28;19959;-84
2022/12/21 01:46:17;;;;;;;;;;;;;;;7.10;69.59;102661.22;5033156;28;19912;-84
2022/12/21 01:48:49;;;;;;;;;;;;;;;7.13;69.75;102661.53;5049447;28;20007;-84
2022/12/21 01:51:14;;;;;;;;;;;;;;;7.15;69.60;102653.88;5050017;28;19912;-83
2022/12/21 01:53:42;;;;;;;;;;;;;;;7.14;69.56;102649.44;5051152;28;19961;-84
2022/12/21 01:56:08;;;;;;;;;;;;;;;7.12;69.49;102643.19;5030144;28;19913;-82
2022/12/21 01:58:33;;;;;;;;;;;;;;;7.16;69.61;102642.72;5047128;28;19920;-81
2022/12/21 02:00:59;;;;;;;;;;;;;;;7.12;69.49;102644.09;5051277;28;19919;-82
2022/12/21 02:03:26;;;;;;;;;;;;;;;7.11;69.60;102642.28;5049715;28;20382;-82
2022/12/21 02:05:53;;;;;;;;;;;;;;;7.16;69.60;102640.13;5049843;28;19917;-82
2022/12/21 02:08:18;;;;;;;;;;;;;;;7.16;69.43;102628.81;5049563;28;20016;-83
2022/12/21 02:10:44;;;;;;;;;;;;;;;7.16;69.48;102631.41;5049644;28;19948;-83
2022/12/21 02:13:10;;;;;;;;;;;;;;;7.13;69.51;102621.63;5049844;28;19939;-82
2022/12/21 02:15:54;;;;;;;;;;;;;;;7.08;69.61;102605.59;5049867;28;19943;-82
2022/12/21 02:18:22;;;;;;;;;;;;;;;7.17;69.53;102607.25;5037925;28;19913;-83
2022/12/21 02:21:03;;;;;;;;;;;;;;;7.12;69.54;102597.34;5052815;28;20408;-82
2022/12/21 02:23:38;;;;;;;;;;;;;;;7.12;69.87;102599.94;5054121;28;20378;-82
2022/12/21 02:26:06;;;;;;;;;;;;;;;7.13;69.48;102600.84;5053239;28;19912;-83
2022/12/21 02:28:31;;;;;;;;;;;;;;;7.14;69.46;102601.00;5053809;28;20035;-83
2022/12/21 02:31:00;;;;;;;;;;;;;;;7.11;69.49;102597.16;5054531;28;20409;-83
2022/12/21 02:33:25;;;;;;;;;;;;;;;7.15;69.58;102596.72;5053348;28;20021;-82
2022/12/21 02:35:51;;;;;;;;;;;;;;;7.09;69.80;102594.44;5053726;28;20449;-82
2022/12/21 02:38:35;;;;;;;;;;;;;;;7.11;69.45;102594.56;5054262;28;20004;-83
2022/12/21 02:41:00;;;;;;;;;;;;;;;7.08;69.84;102599.50;5054547;28;20356;-83
2022/12/21 02:46:36;;;;;;;;;;;;;;;7.13;69.33;102593.97;5053842;28;19923;-83
2022/12/21 02:49:03;;;;;;;;;;;;;;;7.06;69.60;102603.63;5054376;28;20601;-82
2022/12/21 02:51:32;;;;;;;;;;;;;;;7.08;69.39;102596.88;5053204;28;19920;-83
2022/12/21 02:53:57;;;;;;;;;;;;;;;7.09;69.43;102593.50;5052762;28;20520;-83
2022/12/21 02:56:23;;;;;;;;;;;;;;;7.06;69.67;102594.13;5052358;28;20597;-82
2022/12/21 02:58:48;;;;;;;;;;;;;;;7.07;69.59;102598.59;5052853;28;19921;-82
2022/12/21 03:01:14;;;;;;;;;;;;;;;7.04;69.88;102593.06;5052726;28;20369;-82
2022/12/21 03:03:54;;;;;;;;;;;;;;;7.06;69.44;102588.94;5053399;28;20405;-82
2022/12/21 03:06:20;;;;;;;;;;;;;;;7.16;69.36;102593.34;5054005;28;20007;-82
2022/12/21 03:08:48;;;;;;;;;;;;;;;7.07;69.32;102592.44;5053359;28;20004;-83
2022/12/21 03:11:13;;;;;;;;;;;;;;;7.03;69.50;102593.84;5053506;28;20499;-83
2022/12/21 03:13:58;;;;;;;;;;;;;;;7.05;69.39;102591.41;5053905;28;19928;-83
2022/12/21 03:16:23;;;;;;;;;;;;;;;7.03;69.62;102590.34;5052527;28;20290;-83
2022/12/21 03:18:55;;;;;;;;;;;;;;;7.03;69.46;102586.06;5053341;28;20003;-83
2022/12/21 03:21:26;;;;;;;;;;;;;;;7.05;69.38;102591.41;5053152;28;20402;-83
2022/12/21 03:23:51;;;;;;;;;;;;;;;7.01;69.52;102584.09;5052552;28;19921;-83
2022/12/21 03:26:43;;;;;;;;;;;;;;;7.06;69.41;102575.03;5053323;28;20302;-83
2022/12/21 03:29:09;;;;;;;;;;;;;;;7.03;69.39;102572.16;5050316;28;19919;-84
2022/12/21 03:31:35;;;;;;;;;;;;;;;7.03;69.71;102578.25;5051559;28;19917;-83
2022/12/21 03:34:02;;;;;;;;;;;;;;;6.98;69.33;102569.09;5051513;28;20343;-82
2022/12/21 03:36:38;;;;;;;;;;;;;;;7.06;69.24;102572.44;5051784;28;19921;-83
2022/12/21 03:39:08;;;;;;;;;;;;;;;7.05;69.39;102571.53;5051743;28;20356;-83
2022/12/21 03:41:42;;;;;;;;;;;;;;;7.04;69.32;102572.28;5053331;28;19913;-83
2022/12/21 03:44:08;;;;;;;;;;;;;;;7.01;69.64;102568.50;5051819;28;19982;-82
2022/12/21 03:46:35;;;;;;;;;;;;;;;6.98;69.75;102574.28;5051623;28;19995;-83
2022/12/21 03:49:04;;;;;;;;;;;;;;;6.96;69.41;102578.41;5051777;28;20003;-83
2022/12/21 03:51:46;;;;;;;;;;;;;;;6.98;69.48;102573.38;5051722;28;19912;-82
2022/12/21 03:54:15;;;;;;;;;;;;;;;6.99;69.55;102573.53;5040531;28;19994;-82
2022/12/21 03:56:41;;;;;;;;;;;;;;;6.93;69.49;102576.44;5050897;28;20003;-81
2022/12/21 03:59:06;;;;;;;;;;;;;;;6.92;69.43;102581.47;5051719;28;20083;-81
2022/12/21 04:01:44;;;;;;;;;;;;;;;6.97;69.54;102577.66;5051856;28;19924;-82
2022/12/21 04:04:15;;;;;;;;;;;;;;;6.97;69.45;102574.16;5052780;28;20382;-82
2022/12/21 04:06:41;;;;;;;;;;;;;;;6.98;69.35;102578.56;5051553;28;19951;-82
2022/12/21 04:09:06;;;;;;;;;;;;;;;6.96;69.51;102572.31;5051179;28;19971;-81
2022/12/21 04:14:16;;;;;;;;;;;;;;;6.94;69.35;102569.56;5051498;28;19950;-83
2022/12/21 04:16:42;;;;;;;;;;;;;;;7.01;69.61;102569.41;5052652;28;19920;-83
2022/12/21 04:21:51;;;;;;;;;;;;;;;6.90;69.72;102567.41;5052117;28;19974;-84
2022/12/21 04:28:07;;;;;;;;;;;;;;;6.89;69.95;102565.59;5052447;28;20442;-84
2022/12/21 04:29:55;;;;;;;;;;;;;;;6.87;69.61;102567.13;5051298;28;20367;-84
2022/12/21 04:32:20;;;;;;;;;;;;;;;6.92;69.58;102565.88;5052226;28;20428;-84
2022/12/21 04:34:46;;;;;;;;;;;;;;;6.93;69.53;102559.94;5052161;28;19917;-84
2022/12/21 04:39:55;;;;;;;;;;;;;;;6.95;69.48;102567.91;5051007;28;19928;-82
2022/12/21 04:42:21;;;;;;;;;;;;;;;6.90;69.28;102568.38;5051983;28;20297;-83
2022/12/21 04:44:46;;;;;;;;;;;;;;;6.92;69.49;102563.28;5050878;28;20017;-84
2022/12/21 04:47:12;;;;;;;;;;;;;;;6.92;69.25;102574.63;5050880;28;19916;-83
2022/12/21 04:49:37;;;;;;;;;;;;;;;6.88;69.48;102562.09;5051811;28;19986;-84
2022/12/21 04:52:02;;;;;;;;;;;;;;;6.91;69.46;102561.47;5050983;28;19944;-83
2022/12/21 04:54:28;;;;;;;;;;;;;;;6.92;69.42;102559.03;5049438;28;19916;-84
2022/12/21 04:56:53;;;;;;;;;;;;;;;6.95;69.24;102555.81;5050533;28;19913;-82
2022/12/21 04:59:19;;;;;;;;;;;;;;;6.92;69.28;102552.91;5051737;28;20405;-83
2022/12/21 05:01:44;;;;;;;;;;;;;;;6.91;69.53;102552.00;5051694;28;20301;-85
2022/12/21 05:04:10;;;;;;;;;;;;;;;7.06;69.07;102542.19;5050210;28;20413;-84
2022/12/21 05:06:36;;;;;;;;;;;;;;;7.00;69.31;102544.19;5051389;28;20516;-84
2022/12/21 05:09:01;;;;;;;;;;;;;;;6.90;69.41;102537.19;5051095;28;19967;-84
2022/12/21 05:11:27;;;;;;;;;;;;;;;6.89;69.21;102539.63;5049723;28;19917;-84
2022/12/21 05:13:52;;;;;;;;;;;;;;;6.93;69.56;102536.56;5046225;28;20360;-84
2022/12/21 05:16:19;;;;;;;;;;;;;;;6.89;69.46;102539.63;5036038;28;19919;-85
2022/12/21 05:18:44;;;;;;;;;;;;;;;6.93;69.47;102533.97;5050999;28;19967;-83
2022/12/21 05:21:10;;;;;;;;;;;;;;;6.92;69.37;102530.47;5047620;28;19952;-82
2022/12/21 05:23:36;;;;;;;;;;;;;;;6.96;69.30;102533.34;5048143;28;19917;-83
2022/12/21 05:26:02;;;;;;;;;;;;;;;6.86;69.34;102526.38;5049330;28;19967;-83
2022/12/21 05:28:27;;;;;;;;;;;;;;;6.97;69.42;102527.41;5049210;28;20417;-83
2022/12/21 05:30:53;;;;;;;;;;;;;;;6.95;69.41;102524.66;5049271;28;20011;-82
2022/12/21 05:33:19;;;;;;;;;;;;;;;6.96;69.70;102530.75;5046081;28;19917;-83
2022/12/21 05:35:44;;;;;;;;;;;;;;;6.90;69.38;102524.22;5043083;28;19917;-82
2022/12/21 05:38:10;;;;;;;;;;;;;;;6.91;69.58;102527.72;5027376;28;19970;-83
2022/12/21 05:40:35;;;;;;;;;;;;;;;6.97;69.30;102524.81;5048549;28;20393;-83
2022/12/21 05:43:01;;;;;;;;;;;;;;;6.96;69.38;102522.97;5046431;28;19917;-85
2022/12/21 05:45:26;;;;;;;;;;;;;;;7.00;69.34;102525.09;5028760;28;20050;-85
2022/12/21 05:47:53;;;;;;;;;;;;;;;7.02;69.37;102527.06;5050289;28;20409;-85
2022/12/21 05:50:18;;;;;;;;;;;;;;;7.01;69.37;102525.25;5049667;28;20368;-83
2022/12/21 05:52:44;;;;;;;;;;;;;;;7.02;69.47;102520.97;5050398;28;20063;-85
2022/12/21 05:55:09;;;;;;;;;;;;;;;7.01;69.66;102526.94;5050841;28;19940;-85
2022/12/21 05:57:35;;;;;;;;;;;;;;;7.04;69.48;102525.53;5053135;28;19920;-84
2022/12/21 06:00:00;;;;;;;;;;;;;;;7.06;69.49;102523.09;5054167;28;20381;-84
2022/12/21 06:02:25;;;;;;;;;;;;;;;7.05;69.57;102529.06;5052899;28;20761;-83
2022/12/21 06:04:51;;;;;;;;;;;;;;;6.98;69.60;102524.03;5053747;28;20042;-82
2022/12/21 06:07:17;;;;;;;;;;;;;;;6.90;69.92;102520.69;5054103;28;20297;-82
2022/12/21 06:09:42;;;;;;;;;;;;;;;6.91;69.84;102530.31;5053672;28;19928;-84
2022/12/21 06:12:08;;;;;;;;;;;;;;;6.93;70.15;102531.38;5040356;28;19925;-84
2022/12/21 06:14:33;;;;;;;;;;;;;;;6.89;70.08;102524.97;5047471;28;19917;-84
2022/12/21 06:16:59;;;;;;;;;;;;;;;6.93;69.92;102523.59;5047600;28;19952;-84
2022/12/21 06:19:24;;;;;;;;;;;;;;;6.94;70.17;102525.41;5049401;28;20279;-84
2022/12/21 06:21:50;;;;;;;;;;;;;;;6.96;69.99;102526.47;5049702;28;19923;-84
2022/12/21 06:24:15;;;;;;;;;;;;;;;7.00;69.84;102519.91;5052285;28;20302;-82
2022/12/21 06:26:40;;;;;;;;;;;;;;;7.02;69.84;102518.34;5028549;28;19925;-84
2022/12/21 06:29:06;;;;;;;;;;;;;;;7.11;69.55;102520.19;5052118;28;20376;-83
2022/12/21 06:31:32;;;;;;;;;;;;;;;7.09;69.52;102521.72;5045978;28;20434;-83
2022/12/21 06:33:57;;;;;;;;;;;;;;;7.11;69.68;102511.44;5047551;28;19917;-83
2022/12/21 06:36:23;;;;;;;;;;;;;;;7.09;69.64;102516.50;5046669;28;20008;-83
2022/12/21 06:38:48;;;;;;;;;;;;;;;7.10;69.73;102515.72;5053409;28;20306;-83
2022/12/21 06:41:14;;;;;;;;;;;;;;;7.04;69.89;102514.22;5051873;28;19951;-83
2022/12/21 06:43:40;;;;;;;;;;;;;;;6.97;70.23;102519.63;5050982;28;19920;-84
2022/12/21 06:46:07;;;;;;;;;;;;;;;6.95;70.47;102521.16;5044348;28;19913;-84
2022/12/21 06:48:33;;;;;;;;;;;;;;;6.98;70.05;102521.44;5050098;28;20361;-84
2022/12/21 06:51:03;;;;;;;;;;;;;;;6.96;70.47;102517.78;5052303;28;19924;-83
2022/12/21 06:53:33;;;;;;;;;;;;;;;6.96;70.59;102517.78;5037991;28;19917;-83
2022/12/21 06:56:03;;;;;;;;;;;;;;;6.95;70.48;102514.25;5040799;28;19924;-82
2022/12/21 06:58:28;;;;;;;;;;;;;;;7.01;70.57;102511.34;5050809;28;20515;-83
2022/12/21 07:00:54;;;;;;;;;;;;;;;7.00;70.29;102513.00;5052704;28;19978;-82
2022/12/21 07:03:22;;;;;;;;;;;;;;;7.00;70.40;102515.59;5050716;28;20413;-83
2022/12/21 07:05:49;;;;;;;;;;;;;;;7.01;70.50;102516.56;5032887;28;19929;-82
2022/12/21 07:08:15;;;;;;;;;;;;;;;6.95;70.53;102506.47;5050775;28;19924;-81
2022/12/21 07:10:40;;;;;;;;;;;;;;;6.97;70.40;102512.72;5051850;28;19967;-82
2022/12/21 07:13:06;;;;;;;;;;;;;;;6.99;70.31;102513.78;5052653;28;19919;-82
2022/12/21 07:15:32;;;;;;;;;;;;;;;7.05;70.48;102510.88;5052554;28;19917;-82
2022/12/21 07:17:58;;;;;;;;;;;;;;;7.03;70.40;102513.31;5048547;28;19963;-82
2022/12/21 07:20:25;;;;;;;;;;;;;;;7.01;70.25;102509.66;5053690;28;19912;-82
2022/12/21 07:22:50;;;;;;;;;;;;;;;7.00;70.45;102512.09;5051522;28;19919;-81
2022/12/21 07:25:15;;;;;;;;;;;;;;;6.99;70.63;102511.19;5051334;28;19921;-82
2022/12/21 07:27:42;;;;;;;;;;;;;;;7.01;70.65;102509.66;5049886;28;20394;-81
2022/12/21 07:30:08;;;;;;;;;;;;;;;7.05;70.55;102516.06;5051397;28;19944;-81
2022/12/21 07:32:33;;;;;;;;;;;;;;;7.05;70.22;102514.38;5048647;28;19959;-81
2022/12/21 07:34:59;;;;;;;;;;;;;;;7.03;70.48;102509.81;5044210;28;19924;-81
2022/12/21 07:37:24;;;;;;;;;;;;;;;7.00;70.76;102517.31;5045235;28;19917;-83
2022/12/21 07:39:55;;;;;;;;;;;;;;;7.03;70.76;102508.13;5042457;28;20287;-81
2022/12/21 07:42:21;;;;;;;;;;;;;;;7.01;70.92;102512.25;5068308;28;21379;-81
2022/12/21 07:44:47;;;;;;;;;;;;;;;6.99;70.83;102508.59;5049318;28;19920;-81
2022/12/21 07:47:12;;;;;;;;;;;;;;;7.00;70.88;102507.81;5066760;28;19932;-81
2022/12/21 07:49:38;;;;;;;;;;;;;;;7.04;70.71;102512.53;5065119;28;20320;-81
2022/12/21 07:52:03;;;;;;;;;;;;;;;7.05;70.73;102514.38;5054858;28;20278;-81
2022/12/21 07:54:29;;;;;;;;;;;;;;;7.05;70.79;102509.19;5055230;28;19947;-81
2022/12/21 07:56:54;;;;;;;;;;;;;;;7.06;70.88;102512.69;5070770;28;20408;-82
2022/12/21 07:59:19;;;;;;;;;;;;;;;7.04;70.98;102509.94;5036740;28;20290;-84
2022/12/21 08:01:45;;;;;;;;;;;;;;;7.06;71.05;102507.50;5071443;28;19974;-83
2022/12/21 08:04:10;;;;;;;;;;;;;;;7.07;71.12;102509.31;5066745;28;20374;-83
2022/12/21 08:06:36;;;;;;;;;;;;;;;7.05;71.36;102504.00;5052321;28;19917;-83
2022/12/21 08:09:02;;;;;;;;;;;;;;;7.06;71.47;102504.91;5051764;28;20612;-83
2022/12/21 08:11:29;;;;;;;;;;;;;;;7.05;71.55;102501.41;5054449;28;19923;-83
2022/12/21 08:13:55;;;;;;;;;;;;;;;7.05;71.64;102509.19;5054433;28;19913;-83
2022/12/21 08:16:20;;;;;;;;;;;;;;;7.08;71.50;102504.28;5071583;28;19916;-83
2022/12/21 08:18:46;;;;;;;;;;;;;;;7.10;71.54;102505.34;5072478;28;19990;-82
2022/12/21 08:21:11;;;;;;;;;;;;;;;7.15;71.78;102500.56;5054638;28;20423;-83
2022/12/21 08:23:37;;;;;;;;;;;;;;;7.14;71.83;102502.25;5036829;28;19923;-83
2022/12/21 08:26:04;;;;;;;;;;;;;;;7.10;71.90;102501.84;5073309;28;19974;-83
2022/12/21 08:28:30;;;;;;;;;;;;;;;7.18;71.88;102499.97;5049841;28;20382;-84
2022/12/21 08:31:07;;;;;;;;;;;;;;;7.18;71.80;102495.69;5069018;28;19960;-84
2022/12/21 08:33:32;;;;;;;;;;;;;;;7.20;72.09;102490.66;5069181;28;19917;-84
2022/12/21 08:35:58;;;;;;;;;;;;;;;7.21;72.59;102488.16;5045815;28;20446;-84
2022/12/21 08:38:23;;;;;;;;;;;;;;;7.22;72.62;102483.91;5040401;28;19951;-83
2022/12/21 08:40:49;;;;;;;;;;;;;;;7.24;72.69;102483.28;5049482;28;20559;-83
2022/12/21 08:43:17;;;;;;;;;;;;;;;7.24;73.07;102477.16;5048253;28;19924;-84
2022/12/21 08:45:44;;;;;;;;;;;;;;;7.25;73.13;102466.91;5025040;28;20394;-82
2022/12/21 08:48:09;;;;;;;;;;;;;;;7.29;73.15;102471.63;5048544;28;19913;-81
2022/12/21 08:50:35;;;;;;;;;;;;;;;7.29;73.21;102463.84;5048630;28;19920;-83
2022/12/21 08:53:00;;;;;;;;;;;;;;;7.31;73.11;102461.38;5041800;28;20394;-82
2022/12/21 08:55:30;;;;;;;;;;;;;;;7.30;73.44;102452.69;5043288;28;19923;-83
2022/12/21 08:57:55;;;;;;;;;;;;;;;7.34;73.47;102448.66;5028159;28;20398;-81
2022/12/21 09:00:21;;;;;;;;;;;;;;;7.37;73.78;102448.06;5041877;28;19956;-80
2022/12/21 09:02:46;;;;;;;;;;;;;;;7.37;73.70;102441.19;5049997;28;19925;-81
2022/12/21 09:05:11;;;;;;;;;;;;;;;7.40;73.91;102443.13;5055163;28;20008;-81
2022/12/21 09:07:38;;;;;;;;;;;;;;;7.41;74.00;102437.16;5045327;28;19929;-82
2022/12/21 09:10:03;;;;;;;;;;;;;;;7.44;74.23;102438.38;5033502;28;19924;-82
2022/12/21 09:12:29;;;;;;;;;;;;;;;7.46;74.38;102433.31;5033457;28;19943;-81
2022/12/21 09:14:55;;;;;;;;;;;;;;;7.47;74.25;102436.06;5042635;28;19923;-82
2022/12/21 09:17:20;;;;;;;;;;;;;;;7.50;74.37;102430.22;5040380;28;19948;-81
2022/12/21 09:19:46;;;;;;;;;;;;;;;7.51;74.46;102432.03;5030461;28;19975;-81
2022/12/21 09:22:12;;;;;;;;;;;;;;;7.48;74.34;102424.88;5045791;28;20023;-83
2022/12/21 09:24:37;;;;;;;;;;;;;;;7.54;74.58;102424.56;5046112;28;20071;-82
2022/12/21 09:27:02;;;;;;;;;;;;;;;7.56;74.57;102420.41;5050503;28;19979;-82
2022/12/21 09:29:29;;;;;;;;;;;;;;;7.57;74.48;102417.03;5038431;28;19913;-82
2022/12/21 09:31:56;;;;;;;;;;;;;;;7.59;74.45;102409.38;5045522;28;20401;-83
2022/12/21 09:34:21;;;;;;;;;;;;;;;7.54;74.47;102415.06;5050337;28;20020;-82
2022/12/21 09:36:49;;;;;;;;;;;;;;;7.59;74.54;102407.69;5050659;28;20039;-83
2022/12/21 09:39:15;;;;;;;;;;;;;;;7.62;74.77;102401.84;5048359;28;19998;-83
2022/12/21 09:41:49;;;;;;;;;;;;;;;7.61;74.61;102392.22;5042685;28;20290;-83
2022/12/21 09:44:20;;;;;;;;;;;;;;;7.60;74.59;102395.59;5043799;28;20352;-83
2022/12/21 09:46:46;;;;;;;;;;;;;;;7.57;75.18;102393.63;5036937;28;19916;-83
2022/12/21 09:49:20;;;;;;;;;;;;;;;7.61;74.85;102382.72;5030525;28;19944;-83
2022/12/21 09:51:49;;;;;;;;;;;;;;;7.65;74.64;102381.34;5043368;28;19917;-84
2022/12/21 09:54:19;;;;;;;;;;;;;;;7.67;74.62;102377.19;5032577;28;19921;-83
2022/12/21 09:56:46;;;;;;;;;;;;;;;7.63;74.64;102373.38;5043247;28;20428;-84
2022/12/21 09:59:13;;;;;;;;;;;;;;;7.64;75.11;102374.28;5035639;28;19917;-84
2022/12/21 10:01:51;;;;;;;;;;;;;;;7.67;74.34;102372.00;5049015;28;19931;-84
2022/12/21 10:04:22;;;;;;;;;;;;;;;7.70;74.75;102367.06;5045048;28;19921;-84
2022/12/21 10:07:23;;;;;;;;;;;;;;;7.72;74.43;102362.91;5047508;28;19966;-84
2022/12/21 10:10:03;;;;;;;;;;;;;;;7.69;74.62;102357.44;5005952;28;20011;-84
2022/12/21 10:12:43;;;;;;;;;;;;;;;7.69;74.81;102353.16;5010353;28;20330;-85
2022/12/21 10:15:09;;;;;;;;;;;;;;;7.69;74.83;102344.44;5043794;28;19935;-83
2022/12/21 10:17:40;;;;;;;;;;;;;;;7.70;74.83;102346.25;5039016;28;20374;-84
2022/12/21 10:20:16;;;;;;;;;;;;;;;7.71;74.89;102340.31;5047356;28;19920;-84
2022/12/21 10:22:48;;;;;;;;;;;;;;;7.72;74.87;102340.41;5051213;28;19917;-83
2022/12/21 10:25:13;;;;;;;;;;;;;;;7.72;74.95;102336.91;5049315;28;19925;-84
2022/12/21 10:27:42;;;;;;;;;;;;;;;7.71;74.78;102336.00;5049180;28;19920;-84
2022/12/21 10:30:10;;;;;;;;;;;;;;;7.72;75.05;102334.31;5046305;28;19917;-84
2022/12/21 10:32:36;;;;;;;;;;;;;;;7.72;74.85;102334.31;5045058;28;19917;-84
2022/12/21 10:35:14;;;;;;;;;;;;;;;7.70;74.89;102323.78;5033610;28;19924;-84
2022/12/21 10:37:40;;;;;;;;;;;;;;;7.72;74.98;102327.41;5043122;28;19921;-84
2022/12/21 10:40:05;;;;;;;;;;;;;;;7.75;74.81;102326.81;5040016;28;19921;-84
2022/12/21 10:42:37;;;;;;;;;;;;;;;7.74;74.85;102324.97;5038781;28;20198;-80
2022/12/21 10:45:03;;;;;;;;;;;;;;;7.76;74.81;102323.41;5045188;28;20022;-82
2022/12/21 10:47:29;;;;;;;;;;;;;;;7.82;74.75;102316.16;5041944;28;19974;-82
2022/12/21 10:50:03;;;;;;;;;;;;;;;7.81;74.60;102313.41;5028855;28;19917;-81
2022/12/21 10:52:33;;;;;;;;;;;;;;;7.81;74.52;102316.00;5041839;28;19967;-83
2022/12/21 10:54:58;;;;;;;;;;;;;;;7.79;74.90;102317.56;5052208;28;19939;-84
2022/12/21 10:57:29;;;;;;;;;;;;;;;7.81;74.62;102310.81;5046010;28;19920;-83
2022/12/21 10:59:54;;;;;;;;;;;;;;;7.81;74.90;102305.63;5043796;28;19913;-83
2022/12/21 11:02:52;;;;;;;;;;;;;;;7.82;74.91;102310.97;5044477;28;20401;-84
2022/12/21 11:05:37;;;;;;;;;;;;;;;7.86;74.66;102306.97;5010407;28;19924;-83
2022/12/21 11:08:18;;;;;;;;;;;;;;;7.87;74.86;102308.75;5039668;28;19966;-81
2022/12/21 11:10:46;;;;;;;;;;;;;;;7.86;74.66;102310.47;5040227;28;19921;-83
2022/12/21 11:13:12;;;;;;;;;;;;;;;7.86;74.87;102304.34;5042107;28;20481;-83
2022/12/21 11:15:37;;;;;;;;;;;;;;;7.84;74.98;102296.41;5037915;28;20298;-83
2022/12/21 11:18:03;;;;;;;;;;;;;;;7.90;74.81;102293.44;5038386;28;20398;-83
2022/12/21 11:20:28;;;;;;;;;;;;;;;7.88;75.04;102297.59;5035407;28;20386;-83
2022/12/21 11:22:55;;;;;;;;;;;;;;;7.95;74.93;102294.75;5036742;28;19912;-83
2022/12/21 11:25:22;;;;;;;;;;;;;;;7.89;75.27;102282.09;5048024;28;19920;-83
2022/12/21 11:27:48;;;;;;;;;;;;;;;7.94;75.07;102285.16;5048756;28;19921;-84
2022/12/21 11:30:22;;;;;;;;;;;;;;;7.94;75.22;102283.44;5050938;28;19921;-83
2022/12/21 11:32:48;;;;;;;;;;;;;;;7.97;75.31;102282.81;5049248;28;19924;-83
2022/12/21 11:35:18;;;;;;;;;;;;;;;8.01;74.62;102273.59;5033488;28;19920;-84
2022/12/21 11:37:44;;;;;;;;;;;;;;;8.01;75.79;102277.09;5047556;28;19920;-83
2022/12/21 11:40:10;;;;;;;;;;;;;;;8.02;75.31;102272.78;5043532;28;20027;-83
2022/12/21 11:42:46;;;;;;;;;;;;;;;8.02;75.82;102268.53;5058802;28;20568;-83
2022/12/21 11:45:25;;;;;;;;;;;;;;;8.03;75.43;102270.34;5051708;28;19968;-83
2022/12/21 11:48:08;;;;;;;;;;;;;;;8.05;76.39;102267.88;5045842;28;19917;-84
2022/12/21 11:50:34;;;;;;;;;;;;;;;8.07;76.59;102275.03;5054278;28;19916;-84
2022/12/21 11:53:02;;;;;;;;;;;;;;;8.09;76.67;102264.78;5060849;28;19916;-84
2022/12/21 11:55:46;;;;;;;;;;;;;;;8.13;76.90;102259.97;5070256;28;19963;-84
2022/12/21 11:58:14;;;;;;;;;;;;;;;8.11;76.16;102264.13;5062989;28;19940;-81
2022/12/21 12:00:52;;;;;;;;;;;;;;;8.17;76.20;102266.38;5058166;28;20464;-81
2022/12/21 12:03:22;;;;;;;;;;;;;;;8.21;77.30;102259.72;5058532;28;20306;-82
2022/12/21 12:05:50;;;;;;;;;;;;;;;8.25;76.40;102248.81;5042645;28;19924;-83
2022/12/21 12:08:16;;;;;;;;;;;;;;;8.27;76.16;102247.25;5053977;28;20518;-84
2022/12/21 12:11:05;;;;;;;;;;;;;;;8.27;77.36;102250.75;5051516;28;19918;-84
2022/12/21 12:13:41;;;;;;;;;;;;;;;8.32;76.57;102248.56;5030428;28;19939;-82
2022/12/21 12:16:08;;;;;;;;;;;;;;;8.31;76.10;102244.13;5023913;28;19919;-83
2022/12/21 12:18:40;;;;;;;;;;;;;;;8.28;76.83;102242.19;5072126;28;19969;-83
2022/12/21 12:21:15;;;;;;;;;;;;;;;8.34;75.75;102244.41;5066315;28;20745;-84
2022/12/21 12:23:43;;;;;;;;;;;;;;;8.36;76.29;102242.84;5071389;28;20386;-84
2022/12/21 12:26:17;;;;;;;;;;;;;;;8.36;76.13;102245.47;5065793;28;20464;-83
2022/12/21 12:28:42;;;;;;;;;;;;;;;8.33;76.31;102238.28;5047267;28;19913;-83
2022/12/21 12:31:20;;;;;;;;;;;;;;;8.33;76.03;102246.06;5066279;28;20029;-83
2022/12/21 12:33:52;;;;;;;;;;;;;;;8.38;76.26;102243.88;5060553;28;19921;-84
2022/12/21 12:36:29;;;;;;;;;;;;;;;8.40;76.49;102244.00;5064265;28;20416;-83
2022/12/21 12:38:58;;;;;;;;;;;;;;;8.41;75.66;102240.69;5060892;28;20024;-84
2022/12/21 12:41:23;;;;;;;;;;;;;;;8.42;76.14;102239.88;5050202;28;19921;-84
2022/12/21 12:43:52;;;;;;;;;;;;;;;8.40;76.00;102234.50;5039835;28;19913;-84
2022/12/21 12:46:29;;;;;;;;;;;;;;;8.50;75.34;102231.94;5041749;28;19917;-84
2022/12/21 12:49:10;;;;;;;;;;;;;;;8.48;75.83;102220.50;5039274;28;19920;-84
2022/12/21 12:51:35;;;;;;;;;;;;;;;8.44;75.70;102226.22;5038949;28;20258;-83
2022/12/21 12:54:13;;;;;;;;;;;;;;;8.48;76.11;102223.09;5051327;28;20400;-83
2022/12/21 12:56:42;;;;;;;;;;;;;;;8.47;76.43;102222.97;5049152;28;20370;-83
2022/12/21 12:59:14;;;;;;;;;;;;;;;8.47;76.25;102226.50;5047039;28;20271;-84
2022/12/21 13:02:15;;;;;;;;;;;;;;;8.47;76.75;102222.97;5048445;28;19913;-85
2022/12/21 13:04:59;;;;;;;;;;;;;;;8.46;76.79;102215.94;5001601;28;20000;-84
2022/12/21 13:07:35;;;;;;;;;;;;;;;8.46;76.04;102216.84;5037307;28;20442;-85